createdAt,value
2022-09-26T00:01:52.265Z,99464.19
2022-09-26T00:04:40.601Z,99466.00
2022-09-26T00:07:28.978Z,99466.91
2022-09-26T00:10:17.428Z,99463.56
2022-09-26T00:13:05.801Z,99460.16
2022-09-26T00:15:54.253Z,99456.75
2022-09-26T00:18:44.011Z,99452.59
2022-09-26T00:21:32.527Z,99453.56
2022-09-26T00:24:20.898Z,99447.56
2022-09-26T00:27:09.201Z,99448.50
2022-09-26T00:29:57.535Z,99446.91
2022-09-26T00:32:45.917Z,99447.97
2022-09-26T00:35:35.643Z,99443.88
2022-09-26T00:38:24.972Z,99460.34
2022-09-26T00:41:13.534Z,99440.53
2022-09-26T00:44:03.363Z,99436.31
2022-09-26T00:46:51.710Z,99444.03
2022-09-26T00:49:43.139Z,99447.53
2022-09-26T00:52:37.699Z,99437.22
2022-09-26T00:55:30.850Z,99436.31
2022-09-26T00:58:22.892Z,99432.72
2022-09-26T01:01:11.428Z,99438.56
2022-09-26T01:03:59.896Z,99426.41
2022-09-26T01:06:49.863Z,99423.75
2022-09-26T01:09:39.551Z,99428.84
2022-09-26T01:12:29.267Z,99421.75
2022-09-26T01:15:18.079Z,99409.63
2022-09-26T01:18:07.472Z,99417.28
2022-09-26T01:21:01.077Z,99411.97
2022-09-26T01:24:12.752Z,99410.97
2022-09-26T01:27:43.544Z,99403.16
2022-09-26T01:30:37.224Z,99396.16
2022-09-26T01:33:42.748Z,99404.66
2022-09-26T01:36:58.640Z,99403.59
2022-09-26T01:39:52.281Z,99400.00
2022-09-26T01:42:45.701Z,99400.84
2022-09-26T01:45:43.147Z,99402.59
2022-09-26T01:48:34.234Z,99400.84
2022-09-26T01:51:24.793Z,99393.16
2022-09-26T01:54:16.571Z,99393.41
2022-09-26T01:57:06.048Z,99397.69
2022-09-26T01:59:56.461Z,99394.25
2022-09-26T02:02:47.907Z,99390.06
2022-09-26T02:05:39.752Z,99398.44
2022-09-26T02:08:30.725Z,99395.09
2022-09-26T02:11:20.803Z,99392.50
2022-09-26T02:14:12.056Z,99394.34
2022-09-26T02:17:02.373Z,99393.41
2022-09-26T02:19:56.695Z,99399.31
2022-09-26T02:22:45.094Z,99391.00
2022-09-26T02:25:37.502Z,99386.84
2022-09-26T02:28:25.897Z,99374.25
2022-09-26T02:31:16.512Z,99374.50
2022-09-26T02:34:06.561Z,99372.22
2022-09-26T02:36:56.987Z,99364.97
2022-09-26T02:39:48.744Z,99361.13
2022-09-26T02:42:47.733Z,99352.88
2022-09-26T02:45:41.415Z,99360.63
2022-09-26T02:48:48.849Z,99343.72
2022-09-26T02:51:54.235Z,99345.78
2022-09-26T02:54:49.664Z,99340.91
2022-09-26T02:57:45.961Z,99334.25
2022-09-26T03:00:44.305Z,99322.59
2022-09-26T03:03:36.306Z,99315.91
2022-09-26T03:06:28.357Z,99313.50
2022-09-26T03:09:17.080Z,99312.00
2022-09-26T03:12:07.221Z,99301.09
2022-09-26T03:14:58.694Z,99302.97
2022-09-26T03:17:50.594Z,99289.56
2022-09-26T03:20:40.794Z,99306.84
2022-09-26T03:23:29.392Z,99301.88
2022-09-26T03:26:24.548Z,99303.75
2022-09-26T03:29:21.089Z,99311.63
2022-09-26T03:32:10.097Z,99298.91
2022-09-26T03:34:58.519Z,99297.47
2022-09-26T03:37:47.801Z,99298.59
2022-09-26T03:40:36.233Z,99284.97
2022-09-26T03:43:43.642Z,99280.66
2022-09-26T03:46:38.975Z,99282.38
2022-09-26T03:49:28.718Z,99274.00
2022-09-26T03:52:17.279Z,99262.94
2022-09-26T03:55:06.717Z,99263.75
2022-09-26T03:57:56.733Z,99255.34
2022-09-26T04:00:52.398Z,99248.72
2022-09-26T04:03:49.317Z,99248.00
2022-09-26T04:06:39.191Z,99249.91
2022-09-26T04:09:27.572Z,99249.16
2022-09-26T04:12:16.481Z,99244.09
2022-09-26T04:15:07.043Z,99237.19
2022-09-26T04:17:56.378Z,99236.38
2022-09-26T04:20:46.923Z,99234.69
2022-09-26T04:23:38.213Z,99239.75
2022-09-26T04:26:26.527Z,99236.19
2022-09-26T04:29:15.393Z,99233.56
2022-09-26T04:32:27.168Z,99229.16
2022-09-26T04:35:51.759Z,99223.84
2022-09-26T04:38:41.147Z,99226.94
2022-09-26T04:41:32.405Z,99217.88
2022-09-26T04:44:21.913Z,99212.06
2022-09-26T04:47:11.253Z,99216.84
2022-09-26T04:50:22.484Z,99207.13
2022-09-26T04:53:26.648Z,99210.16
2022-09-26T04:56:44.749Z,99203.81
2022-09-26T04:59:33.874Z,99207.97
2022-09-26T05:02:25.566Z,99199.19
2022-09-26T05:05:16.122Z,99193.03
2022-09-26T05:08:05.271Z,99189.63
2022-09-26T05:10:55.940Z,99188.06
2022-09-26T05:13:44.989Z,99190.88
2022-09-26T05:16:33.731Z,99186.63
2022-09-26T05:19:23.350Z,99185.91
2022-09-26T05:22:31.444Z,99182.56
2022-09-26T05:25:38.229Z,99188.53
2022-09-26T05:28:28.256Z,99185.91
2022-09-26T05:31:16.736Z,99187.38
2022-09-26T05:34:07.590Z,99186.06
2022-09-26T05:36:56.477Z,99179.75
2022-09-26T05:40:03.221Z,99172.44
2022-09-26T05:42:53.518Z,99170.97
2022-09-26T05:45:50.809Z,99163.31
2022-09-26T05:48:43.217Z,99165.88
2022-09-26T05:51:37.966Z,99152.19
2022-09-26T05:54:26.408Z,99154.28
2022-09-26T05:57:18.224Z,99149.41
2022-09-26T06:00:14.316Z,99148.88
2022-09-26T06:03:09.941Z,99152.69
2022-09-26T06:06:10.332Z,99147.91
2022-09-26T06:08:58.803Z,99146.09
2022-09-26T06:12:06.004Z,99135.91
2022-09-26T06:14:54.404Z,99145.47
2022-09-26T06:17:42.774Z,99133.22
2022-09-26T06:20:33.268Z,99125.59
2022-09-26T06:23:21.677Z,99121.28
2022-09-26T06:26:12.599Z,99118.47
2022-09-26T06:29:01.917Z,99115.16
2022-09-26T06:31:55.254Z,99115.91
2022-09-26T06:34:47.142Z,99109.38
2022-09-26T06:37:53.160Z,99099.31
2022-09-26T06:40:41.746Z,99094.66
2022-09-26T06:43:49.692Z,99089.19
2022-09-26T06:47:10.735Z,99094.03
2022-09-26T06:50:00.471Z,99082.88
2022-09-26T06:52:53.705Z,99073.44
2022-09-26T06:55:43.929Z,99074.19
2022-09-26T06:58:32.436Z,99074.78
2022-09-26T07:01:26.861Z,99067.09
2022-09-26T07:04:35.836Z,99069.72
2022-09-26T07:07:49.804Z,99073.59
2022-09-26T07:10:48.069Z,99073.25
2022-09-26T07:13:45.958Z,99070.28
2022-09-26T07:16:34.759Z,99068.25
2022-09-26T07:19:52.068Z,99062.78
2022-09-26T07:22:59.007Z,99065.75
2022-09-26T07:25:48.845Z,99065.75
2022-09-26T07:28:38.281Z,99070.06
2022-09-26T07:31:26.710Z,99070.66
2022-09-26T07:34:27.123Z,99070.56
2022-09-26T07:37:17.206Z,99070.16
2022-09-26T07:40:08.470Z,99071.69
2022-09-26T07:43:19.241Z,99060.03
2022-09-26T07:46:26.932Z,99067.78
2022-09-26T07:49:35.578Z,99063.84
2022-09-26T07:52:43.500Z,99067.88
2022-09-26T07:56:01.472Z,99068.22
2022-09-26T07:59:20.726Z,99060.31
2022-09-26T08:02:29.049Z,99059.50
2022-09-26T08:05:19.859Z,99060.91
2022-09-26T08:08:08.863Z,99061.34
2022-09-26T08:11:16.739Z,99045.50
2022-09-26T08:14:16.458Z,99053.06
2022-09-26T08:17:22.068Z,99056.41
2022-09-26T08:20:10.879Z,99046.94
2022-09-26T08:22:59.420Z,99040.06
2022-09-26T08:25:48.352Z,99035.75
2022-09-26T08:28:54.352Z,99033.28
2022-09-26T08:31:43.009Z,99036.38
2022-09-26T08:34:35.033Z,99035.94
2022-09-26T08:37:41.913Z,99041.34
2022-09-26T08:40:55.410Z,99047.66
2022-09-26T08:44:22.873Z,99031.75
2022-09-26T08:47:53.360Z,99037.06
2022-09-26T08:50:54.303Z,99041.66
2022-09-26T08:53:47.164Z,99036.03
2022-09-26T08:56:40.466Z,99030.31
2022-09-26T08:59:32.610Z,99031.13
2022-09-26T09:02:24.445Z,99032.09
2022-09-26T09:05:20.778Z,99032.31
2022-09-26T09:08:17.281Z,99034.00
2022-09-26T09:11:32.539Z,99028.72
2022-09-26T09:15:02.427Z,99020.47
2022-09-26T09:18:14.762Z,99013.09
2022-09-26T09:21:32.806Z,99017.94
2022-09-26T09:24:52.854Z,99009.09
2022-09-26T09:27:52.971Z,99007.28
2022-09-26T09:30:44.565Z,99008.88
2022-09-26T09:33:53.278Z,99004.09
2022-09-26T09:37:11.933Z,98997.16
2022-09-26T09:40:28.067Z,98993.84
2022-09-26T09:43:26.882Z,98986.44
2022-09-26T09:46:19.310Z,98986.41
2022-09-26T09:49:18.344Z,98982.44
2022-09-26T09:52:33.017Z,98961.19
2022-09-26T09:55:36.556Z,98957.50
2022-09-26T09:58:56.802Z,98959.84
2022-09-26T10:01:46.887Z,98951.34
2022-09-26T10:04:42.758Z,98946.25
2022-09-26T10:07:31.428Z,98939.22
2022-09-26T10:10:48.069Z,98933.28
2022-09-26T10:14:13.211Z,98934.00
2022-09-26T10:17:28.529Z,98930.91
2022-09-26T10:20:40.054Z,98931.31
2022-09-26T10:23:32.743Z,98927.94
2022-09-26T10:26:34.786Z,98921.91
2022-09-26T10:29:26.158Z,98913.13
2022-09-26T10:32:14.972Z,98918.03
2022-09-26T10:35:19.815Z,98905.13
2022-09-26T10:38:18.858Z,98912.63
2022-09-26T10:41:06.755Z,98918.56
2022-09-26T10:43:59.336Z,98922.69
2022-09-26T10:47:15.937Z,98922.28
2022-09-26T10:50:27.856Z,98915.81
2022-09-26T10:53:37.967Z,98920.44
2022-09-26T10:56:27.782Z,98921.13
2022-09-26T10:59:18.969Z,98915.31
2022-09-26T11:02:07.503Z,98918.69
2022-09-26T11:05:16.732Z,98912.13
2022-09-26T11:08:05.985Z,98900.28
2022-09-26T11:11:33.636Z,98898.44
2022-09-26T11:14:29.037Z,98883.09
2022-09-26T11:17:47.327Z,98880.63
2022-09-26T11:20:45.331Z,98875.75
2022-09-26T11:23:39.010Z,98871.81
2022-09-26T11:26:33.996Z,98869.06
2022-09-26T11:29:34.693Z,98870.59
2022-09-26T11:32:30.612Z,98854.03
2022-09-26T11:35:26.200Z,98847.00
2022-09-26T11:38:25.254Z,98832.63
2022-09-26T11:41:42.014Z,98810.41
2022-09-26T11:44:47.111Z,98807.25
2022-09-26T11:48:13.343Z,98804.47
2022-09-26T11:51:34.535Z,98809.09
2022-09-26T11:54:34.056Z,98809.78
2022-09-26T11:57:37.293Z,98798.16
2022-09-26T12:00:32.083Z,98799.25
2022-09-26T12:03:47.578Z,98787.47
2022-09-26T12:06:40.455Z,98776.91
2022-09-26T12:09:59.249Z,98780.06
2022-09-26T12:13:07.125Z,98765.75
2022-09-26T12:16:00.555Z,98763.19
2022-09-26T12:18:58.047Z,98761.75
2022-09-26T12:22:13.371Z,98753.00
2022-09-26T12:25:22.942Z,98757.53
2022-09-26T12:28:25.222Z,98745.72
2022-09-26T12:31:19.857Z,98735.50
2022-09-26T12:34:22.851Z,98739.78
2022-09-26T12:37:35.876Z,98724.75
2022-09-26T12:40:36.119Z,98723.56
2022-09-26T12:44:12.627Z,98716.47
2022-09-26T12:47:46.369Z,98715.81
2022-09-26T12:50:42.629Z,98709.94
2022-09-26T12:54:10.926Z,98714.69
2022-09-26T12:57:04.264Z,98701.50
2022-09-26T13:00:12.880Z,98710.59
2022-09-26T13:03:35.323Z,98710.88
2022-09-26T13:07:07.658Z,98700.44
2022-09-26T13:10:08.777Z,98702.22
2022-09-26T13:13:54.130Z,98722.91
2022-09-26T13:16:56.072Z,98728.97
2022-09-26T13:19:51.450Z,98718.03
2022-09-26T13:22:43.661Z,98719.38
2022-09-26T13:25:35.645Z,98712.75
2022-09-26T13:28:26.678Z,98718.44
2022-09-26T13:31:18.811Z,98713.75
2022-09-26T13:34:13.490Z,98716.16
2022-09-26T13:37:03.340Z,98718.06
2022-09-26T13:39:53.682Z,98702.69
2022-09-26T13:42:45.119Z,98701.06
2022-09-26T13:45:46.048Z,98695.88
2022-09-26T13:48:40.080Z,98691.97
2022-09-26T13:51:39.334Z,98685.53
2022-09-26T13:54:34.258Z,98687.09
2022-09-26T13:57:32.500Z,98692.53
2022-09-26T14:00:48.685Z,98682.78
2022-09-26T14:03:43.566Z,98684.19
2022-09-26T14:06:31.997Z,98684.19
2022-09-26T14:09:23.729Z,98696.47
2022-09-26T14:12:33.065Z,98684.09
2022-09-26T14:15:24.044Z,98676.66
2022-09-26T14:18:57.481Z,98673.63
2022-09-26T14:22:00.294Z,98666.09
2022-09-26T14:24:48.820Z,98664.38
2022-09-26T14:27:48.027Z,98646.00
2022-09-26T14:30:37.324Z,98649.31
2022-09-26T14:33:26.339Z,98638.06
2022-09-26T14:36:25.838Z,98636.56
2022-09-26T14:39:44.559Z,98633.38
2022-09-26T14:42:35.730Z,98635.13
2022-09-26T14:45:27.897Z,98631.00
2022-09-26T14:48:27.324Z,98624.16
2022-09-26T14:51:28.164Z,98629.59
2022-09-26T14:54:22.391Z,98617.47
2022-09-26T14:57:21.394Z,98609.41
2022-09-26T15:00:36.966Z,98609.16
2022-09-26T15:03:25.742Z,98606.09
2022-09-26T15:06:14.313Z,98597.22
2022-09-26T15:09:09.629Z,98591.16
2022-09-26T15:12:00.022Z,98577.97
2022-09-26T15:14:50.856Z,98576.81
2022-09-26T15:17:45.334Z,98568.66
2022-09-26T15:20:36.434Z,98576.97
2022-09-26T15:23:27.812Z,98566.84
2022-09-26T15:26:18.032Z,98556.06
2022-09-26T15:29:07.955Z,98559.22
2022-09-26T15:31:57.710Z,98553.47
2022-09-26T15:34:47.898Z,98552.34
2022-09-26T15:37:36.833Z,98545.97
2022-09-26T15:40:27.729Z,98540.47
2022-09-26T15:43:20.583Z,98531.97
2022-09-26T15:46:21.991Z,98539.91
2022-09-26T15:49:14.325Z,98532.81
2022-09-26T15:52:04.369Z,98530.91
2022-09-26T15:54:54.548Z,98510.66
2022-09-26T15:57:43.509Z,98522.34
2022-09-26T16:00:33.784Z,98517.13
2022-09-26T16:03:58.178Z,98515.78
2022-09-26T16:06:55.110Z,98514.00
2022-09-26T16:09:45.830Z,98517.81
2022-09-26T16:12:35.435Z,98511.13
2022-09-26T16:15:29.092Z,98512.31
2022-09-26T16:18:25.494Z,98507.94
2022-09-26T16:21:20.942Z,98501.34
2022-09-26T16:24:32.570Z,98503.53
2022-09-26T16:27:26.442Z,98501.75
2022-09-26T16:30:42.806Z,98504.34
2022-09-26T16:33:32.366Z,98495.44
2022-09-26T16:36:23.457Z,98501.03
2022-09-26T16:39:20.431Z,98497.72
2022-09-26T16:42:16.266Z,98496.34
2022-09-26T16:45:07.445Z,98492.34
2022-09-26T16:47:56.140Z,98493.56
2022-09-26T16:50:44.757Z,98486.16
2022-09-26T16:53:33.761Z,98481.78
2022-09-26T16:56:23.784Z,98471.66
2022-09-26T16:59:17.505Z,98473.00
2022-09-26T17:02:08.899Z,98471.63
2022-09-26T17:04:57.475Z,98458.75
2022-09-26T17:07:46.546Z,98460.53
2022-09-26T17:10:37.582Z,98459.03
2022-09-26T17:13:27.361Z,98454.28
2022-09-26T17:16:16.211Z,98452.63
2022-09-26T17:19:06.211Z,98440.63
2022-09-26T17:21:55.133Z,98428.59
2022-09-26T17:24:44.045Z,98424.72
2022-09-26T17:27:34.194Z,98421.31
2022-09-26T17:30:23.119Z,98410.94
2022-09-26T17:33:11.941Z,98418.97
2022-09-26T17:36:03.005Z,98404.22
2022-09-26T17:38:51.607Z,98402.56
2022-09-26T17:41:40.169Z,98401.47
2022-09-26T17:44:28.794Z,98403.00
2022-09-26T17:47:17.524Z,98390.16
2022-09-26T17:50:07.603Z,98395.19
2022-09-26T17:52:58.194Z,98392.47
2022-09-26T17:55:46.810Z,98384.56
2022-09-26T17:58:36.654Z,98386.34
2022-09-26T18:01:26.904Z,98385.38
2022-09-26T18:04:17.839Z,98383.59
2022-09-26T18:07:06.441Z,98381.41
2022-09-26T18:09:56.393Z,98382.38
2022-09-26T18:12:45.506Z,98384.28
2022-09-26T18:15:34.534Z,98382.59
2022-09-26T18:18:25.345Z,98380.41
2022-09-26T18:21:15.536Z,98373.84
2022-09-26T18:24:06.611Z,98371.88
2022-09-26T18:27:03.424Z,98372.66
2022-09-26T18:29:52.024Z,98363.06
2022-09-26T18:32:41.666Z,98365.88
2022-09-26T18:35:31.417Z,98356.75
2022-09-26T18:38:20.016Z,98360.53
2022-09-26T18:41:10.040Z,98353.25
2022-09-26T18:44:01.194Z,98353.38
2022-09-26T18:46:49.868Z,98350.47
2022-09-26T18:49:38.568Z,98358.50
2022-09-26T18:52:27.147Z,98357.00
2022-09-26T18:55:37.562Z,98357.38
2022-09-26T18:58:27.296Z,98369.19
2022-09-26T19:01:21.721Z,98372.28
2022-09-26T19:04:14.799Z,98375.59
2022-09-26T19:07:07.191Z,98383.03
2022-09-26T19:09:56.450Z,98386.13
2022-09-26T19:12:45.239Z,98391.66
2022-09-26T19:15:33.891Z,98380.84
2022-09-26T19:18:23.982Z,98385.34
2022-09-26T19:21:18.693Z,98382.16
2022-09-26T19:24:11.982Z,98381.81
2022-09-26T19:27:06.060Z,98385.59
2022-09-26T19:29:57.703Z,98380.91
2022-09-26T19:32:48.181Z,98389.75
2022-09-26T19:35:40.053Z,98398.56
2022-09-26T19:38:28.807Z,98401.41
2022-09-26T19:41:17.480Z,98399.06
2022-09-26T19:44:07.252Z,98408.75
2022-09-26T19:46:56.339Z,98402.38
2022-09-26T19:49:45.318Z,98396.38
2022-09-26T19:52:35.638Z,98397.00
2022-09-26T19:55:25.674Z,98385.69
2022-09-26T19:58:16.179Z,98392.28
2022-09-26T20:01:15.540Z,98387.56
2022-09-26T20:04:04.186Z,98383.69
2022-09-26T20:06:52.969Z,98388.03
2022-09-26T20:09:42.958Z,98382.47
2022-09-26T20:12:31.502Z,98371.53
2022-09-26T20:15:21.076Z,98368.25
2022-09-26T20:18:12.688Z,98368.97
2022-09-26T20:21:01.250Z,98367.28
2022-09-26T20:23:49.891Z,98369.16
2022-09-26T20:26:40.403Z,98361.66
2022-09-26T20:29:29.213Z,98345.44
2022-09-26T20:32:19.205Z,98352.72
2022-09-26T20:35:09.396Z,98347.19
2022-09-26T20:38:02.142Z,98345.78
2022-09-26T20:40:50.898Z,98335.06
2022-09-26T20:43:40.970Z,98333.66
2022-09-26T20:46:32.186Z,98335.06
2022-09-26T20:49:23.321Z,98325.97
2022-09-26T20:52:15.729Z,98321.88
2022-09-26T20:55:04.539Z,98325.50
2022-09-26T20:57:53.148Z,98321.63
2022-09-26T21:00:43.136Z,98311.50
2022-09-26T21:03:31.816Z,98315.16
2022-09-26T21:06:22.381Z,98294.56
2022-09-26T21:09:15.837Z,98292.94
2022-09-26T21:12:11.272Z,98293.88
2022-09-26T21:14:59.881Z,98281.19
2022-09-26T21:17:49.934Z,98282.00
2022-09-26T21:20:38.456Z,98268.50
2022-09-26T21:23:47.495Z,98263.34
2022-09-26T21:26:36.077Z,98255.59
2022-09-26T21:29:24.646Z,98258.03
2022-09-26T21:32:16.899Z,98243.38
2022-09-26T21:35:08.209Z,98246.06
2022-09-26T21:37:57.068Z,98240.06
2022-09-26T21:40:45.871Z,98235.72
2022-09-26T21:43:36.383Z,98238.41
2022-09-26T21:46:25.859Z,98229.75
2022-09-26T21:49:14.718Z,98232.06
2022-09-26T21:52:09.946Z,98232.06
2022-09-26T21:54:58.865Z,98231.38
2022-09-26T21:57:48.051Z,98224.69
2022-09-26T22:00:36.569Z,98229.03
2022-09-26T22:03:25.187Z,98217.97
2022-09-26T22:06:13.808Z,98215.59
2022-09-26T22:09:03.982Z,98205.28
2022-09-26T22:11:52.803Z,98196.94
2022-09-26T22:14:41.822Z,98200.44
2022-09-26T22:17:30.467Z,98187.69
2022-09-26T22:20:19.259Z,98193.75
2022-09-26T22:23:07.868Z,98193.66
2022-09-26T22:25:57.863Z,98187.69
2022-09-26T22:28:46.542Z,98179.91
2022-09-26T22:31:35.152Z,98174.84
2022-09-26T22:34:23.783Z,98182.50
2022-09-26T22:37:12.388Z,98179.22
2022-09-26T22:40:01.021Z,98180.13
2022-09-26T22:42:52.236Z,98172.38
2022-09-26T22:45:40.867Z,98167.22
2022-09-26T22:48:32.578Z,98168.16
2022-09-26T22:51:21.210Z,98157.94
2022-09-26T22:54:09.803Z,98149.47
2022-09-26T22:56:58.449Z,98147.03
2022-09-26T22:59:48.459Z,98154.09
2022-09-26T23:02:38.003Z,98135.28
2022-09-26T23:05:26.794Z,98124.09
2022-09-26T23:08:15.335Z,98129.28
2022-09-26T23:11:04.017Z,98116.25
2022-09-26T23:13:53.372Z,98115.34
2022-09-26T23:16:43.496Z,98113.56
2022-09-26T23:19:32.448Z,98105.00
2022-09-26T23:22:20.998Z,98109.91
2022-09-26T23:25:10.725Z,98101.34
2022-09-26T23:27:59.391Z,98089.25
2022-09-26T23:30:48.129Z,98096.19
2022-09-26T23:33:38.154Z,98088.53
2022-09-26T23:36:26.719Z,98086.91
2022-09-26T23:39:15.417Z,98080.09
2022-09-26T23:42:04.193Z,98072.22
2022-09-26T23:44:52.925Z,98074.91
2022-09-26T23:47:41.546Z,98070.00
2022-09-26T23:50:31.479Z,98066.72
2022-09-26T23:53:20.087Z,98056.84
2022-09-26T23:56:10.023Z,98053.56
2022-09-26T23:58:58.604Z,98061.09
